createdAt,value
2023-01-26T00:00:59.688Z,0.84
2023-01-26T00:02:01.646Z,0.82
2023-01-26T00:03:02.950Z,0.78
2023-01-26T00:04:04.313Z,0.76
2023-01-26T00:05:05.862Z,0.73
2023-01-26T00:06:08.221Z,0.75
2023-01-26T00:07:09.433Z,0.74
2023-01-26T00:08:11.127Z,0.73
2023-01-26T00:09:13.764Z,0.73
2023-01-26T00:10:15.223Z,0.69
2023-01-26T00:11:18.302Z,0.66
2023-01-26T00:12:19.602Z,0.65
2023-01-26T00:13:20.877Z,0.68
2023-01-26T00:14:22.130Z,0.69
2023-01-26T00:15:23.359Z,0.79
2023-01-26T00:16:24.751Z,0.76
2023-01-26T00:17:26.332Z,0.70
2023-01-26T00:18:28.096Z,0.77
2023-01-26T00:19:29.351Z,0.79
2023-01-26T00:20:30.571Z,0.73
2023-01-26T00:21:31.782Z,0.74
2023-01-26T00:22:32.993Z,0.72
2023-01-26T00:23:34.915Z,0.69
2023-01-26T00:24:36.158Z,0.76
2023-01-26T00:25:38.082Z,0.76
2023-01-26T00:26:39.299Z,0.69
2023-01-26T00:27:40.569Z,0.62
2023-01-26T00:28:41.833Z,0.62
2023-01-26T00:29:43.054Z,0.55
2023-01-26T00:30:44.274Z,0.56
2023-01-26T00:31:45.567Z,0.55
2023-01-26T00:32:49.034Z,0.54
2023-01-26T00:33:51.673Z,0.56
2023-01-26T00:34:53.000Z,0.57
2023-01-26T00:35:54.604Z,0.61
2023-01-26T00:36:55.841Z,0.60
2023-01-26T00:37:58.323Z,0.60
2023-01-26T00:38:59.627Z,0.61
2023-01-26T00:40:02.412Z,0.66
2023-01-26T00:41:03.727Z,0.69
2023-01-26T00:42:04.984Z,0.68
2023-01-26T00:43:06.477Z,0.66
2023-01-26T00:44:07.745Z,0.62
2023-01-26T00:45:09.198Z,0.61
2023-01-26T00:46:11.625Z,0.62
2023-01-26T00:47:13.531Z,0.63
2023-01-26T00:48:14.809Z,0.64
2023-01-26T00:49:16.079Z,0.66
2023-01-26T00:50:17.382Z,0.70
2023-01-26T00:51:18.647Z,0.68
2023-01-26T00:52:19.901Z,0.68
2023-01-26T00:53:21.211Z,0.69
2023-01-26T00:54:22.436Z,0.69
2023-01-26T00:55:23.677Z,0.71
2023-01-26T00:56:24.988Z,0.68
2023-01-26T00:57:26.839Z,0.63
2023-01-26T00:58:28.060Z,0.63
2023-01-26T00:59:30.895Z,0.60
2023-01-26T01:00:32.606Z,0.60
2023-01-26T01:01:34.121Z,0.58
2023-01-26T01:02:35.446Z,0.57
2023-01-26T01:03:36.683Z,0.57
2023-01-26T01:04:38.116Z,0.58
2023-01-26T01:05:39.403Z,0.59
2023-01-26T01:06:40.741Z,0.55
2023-01-26T01:07:41.966Z,0.61
2023-01-26T01:08:43.319Z,0.61
2023-01-26T01:09:45.369Z,0.61
2023-01-26T01:10:46.576Z,0.62
2023-01-26T01:11:47.796Z,0.65
2023-01-26T01:12:49.364Z,0.65
2023-01-26T01:13:50.895Z,0.61
2023-01-26T01:14:52.195Z,0.60
2023-01-26T01:15:53.498Z,0.56
2023-01-26T01:16:55.012Z,0.59
2023-01-26T01:17:56.364Z,0.65
2023-01-26T01:18:57.637Z,0.62
2023-01-26T01:19:58.900Z,0.61
2023-01-26T01:21:00.126Z,0.68
2023-01-26T01:22:01.345Z,0.71
2023-01-26T01:23:02.601Z,0.72
2023-01-26T01:24:04.059Z,0.72
2023-01-26T01:25:05.620Z,0.75
2023-01-26T01:26:07.496Z,0.71
2023-01-26T01:27:08.740Z,0.68
2023-01-26T01:28:10.026Z,0.66
2023-01-26T01:29:14.485Z,0.72
2023-01-26T01:30:15.762Z,0.74
2023-01-26T01:31:17.695Z,0.72
2023-01-26T01:32:19.396Z,0.66
2023-01-26T01:33:22.264Z,0.62
2023-01-26T01:34:23.510Z,0.61
2023-01-26T01:35:24.838Z,0.59
2023-01-26T01:36:26.126Z,0.60
2023-01-26T01:37:28.861Z,0.60
2023-01-26T01:38:30.182Z,0.59
2023-01-26T01:39:31.546Z,0.60
2023-01-26T01:40:32.875Z,0.55
2023-01-26T01:41:34.133Z,0.60
2023-01-26T01:42:35.381Z,0.59
2023-01-26T01:43:37.143Z,0.55
2023-01-26T01:44:39.140Z,0.58
2023-01-26T01:45:44.415Z,0.56
2023-01-26T01:46:47.232Z,0.55
2023-01-26T01:47:48.566Z,0.55
2023-01-26T01:48:56.103Z,0.54
2023-01-26T01:49:57.557Z,0.55
2023-01-26T01:51:01.716Z,0.56
2023-01-26T01:52:23.250Z,0.54
2023-01-26T01:53:27.358Z,0.55
2023-01-26T01:54:34.206Z,0.55
2023-01-26T01:55:36.122Z,0.55
2023-01-26T01:56:40.807Z,0.56
2023-01-26T01:57:51.447Z,0.60
2023-01-26T01:58:54.682Z,0.62
2023-01-26T02:00:06.557Z,0.62
2023-01-26T02:01:14.217Z,0.62
2023-01-26T02:02:16.166Z,0.63
2023-01-26T02:03:17.983Z,0.60
2023-01-26T02:04:21.030Z,0.61
2023-01-26T02:05:26.270Z,0.55
2023-01-26T02:06:36.133Z,0.54
2023-01-26T02:07:38.565Z,0.54
2023-01-26T02:08:42.992Z,0.54
2023-01-26T02:09:45.972Z,0.53
2023-01-26T02:10:48.491Z,0.55
2023-01-26T02:11:49.799Z,0.51
2023-01-26T02:12:53.421Z,0.49
2023-01-26T02:13:56.415Z,0.52
2023-01-26T02:14:57.968Z,0.49
2023-01-26T02:16:00.794Z,0.50
2023-01-26T02:17:02.077Z,0.56
2023-01-26T02:18:04.647Z,0.55
2023-01-26T02:19:11.235Z,0.58
2023-01-26T02:20:12.894Z,0.59
2023-01-26T02:21:16.627Z,0.58
2023-01-26T02:22:27.385Z,0.52
2023-01-26T02:23:37.397Z,0.54
2023-01-26T02:24:40.004Z,0.55
2023-01-26T02:25:41.287Z,0.57
2023-01-26T02:26:42.619Z,0.54
2023-01-26T02:27:43.962Z,0.57
2023-01-26T02:28:45.863Z,0.54
2023-01-26T02:29:47.156Z,0.50
2023-01-26T02:30:48.920Z,0.47
2023-01-26T02:31:51.089Z,0.50
2023-01-26T02:32:52.660Z,0.48
2023-01-26T02:33:54.341Z,0.46
2023-01-26T02:34:56.284Z,0.48
2023-01-26T02:35:57.931Z,0.52
2023-01-26T02:37:00.055Z,0.51
2023-01-26T02:38:01.451Z,0.54
2023-01-26T02:39:06.359Z,0.58
2023-01-26T02:40:13.594Z,0.61
2023-01-26T02:41:16.886Z,0.57
2023-01-26T02:42:18.998Z,0.54
2023-01-26T02:43:21.104Z,0.51
2023-01-26T02:44:22.341Z,0.48
2023-01-26T02:45:23.645Z,0.46
2023-01-26T02:46:24.982Z,0.49
2023-01-26T02:47:26.527Z,0.56
2023-01-26T02:48:27.789Z,0.60
2023-01-26T02:49:30.405Z,0.56
2023-01-26T02:50:32.339Z,0.57
2023-01-26T02:51:33.626Z,0.60
2023-01-26T02:52:34.945Z,0.57
2023-01-26T02:53:51.248Z,0.53
2023-01-26T02:54:53.172Z,0.55
2023-01-26T02:55:54.479Z,0.52
2023-01-26T02:56:55.741Z,0.49
2023-01-26T02:57:58.609Z,0.48
2023-01-26T02:58:59.889Z,0.46
2023-01-26T03:00:01.422Z,0.51
2023-01-26T03:01:02.871Z,0.50
2023-01-26T03:02:04.202Z,0.50
2023-01-26T03:03:11.908Z,0.53
2023-01-26T03:04:13.140Z,0.54
2023-01-26T03:05:14.434Z,0.54
2023-01-26T03:06:15.850Z,0.57
2023-01-26T03:07:17.250Z,0.59
2023-01-26T03:08:18.542Z,0.60
2023-01-26T03:09:19.837Z,0.60
2023-01-26T03:10:21.941Z,0.59
2023-01-26T03:11:23.203Z,0.57
2023-01-26T03:12:24.776Z,0.52
2023-01-26T03:13:26.284Z,0.50
2023-01-26T03:14:28.139Z,0.54
2023-01-26T03:15:29.602Z,0.51
2023-01-26T03:16:30.847Z,0.49
2023-01-26T03:17:32.116Z,0.52
2023-01-26T03:18:34.790Z,0.43
2023-01-26T03:19:36.037Z,0.36
2023-01-26T03:20:42.856Z,0.40
2023-01-26T03:21:44.224Z,0.38
2023-01-26T03:22:47.466Z,0.36
2023-01-26T03:23:50.489Z,0.36
2023-01-26T03:24:52.096Z,0.37
2023-01-26T03:25:53.384Z,0.37
2023-01-26T03:26:54.686Z,0.37
2023-01-26T03:27:56.249Z,0.37
2023-01-26T03:28:57.620Z,0.38
2023-01-26T03:29:58.980Z,0.40
2023-01-26T03:31:00.437Z,0.43
2023-01-26T03:32:04.669Z,0.43
2023-01-26T03:33:06.135Z,0.46
2023-01-26T03:34:07.428Z,0.50
2023-01-26T03:35:09.302Z,0.53
2023-01-26T03:36:10.568Z,0.51
2023-01-26T03:37:11.975Z,0.55
2023-01-26T03:38:22.022Z,0.52
2023-01-26T03:39:26.652Z,0.50
2023-01-26T03:40:28.025Z,0.53
2023-01-26T03:41:29.360Z,0.49
2023-01-26T03:42:30.670Z,0.51
2023-01-26T03:43:31.921Z,0.49
2023-01-26T03:44:33.242Z,0.52
2023-01-26T03:45:34.625Z,0.44
2023-01-26T03:46:35.982Z,0.40
2023-01-26T03:47:38.887Z,0.36
2023-01-26T03:48:40.205Z,0.33
2023-01-26T03:49:41.494Z,0.27
2023-01-26T03:50:43.051Z,0.27
2023-01-26T03:51:44.256Z,0.29
2023-01-26T03:52:45.533Z,0.32
2023-01-26T03:53:46.821Z,0.33
2023-01-26T03:54:48.116Z,0.30
2023-01-26T03:55:50.122Z,0.30
2023-01-26T03:56:51.977Z,0.30
2023-01-26T03:57:53.281Z,0.25
2023-01-26T03:58:55.880Z,0.26
2023-01-26T03:59:59.292Z,0.28
2023-01-26T04:01:01.653Z,0.33
2023-01-26T04:02:07.821Z,0.27
2023-01-26T04:03:10.108Z,0.23
2023-01-26T04:04:11.436Z,0.30
2023-01-26T04:05:13.219Z,0.24
2023-01-26T04:06:18.083Z,0.19
2023-01-26T04:07:22.725Z,0.24
2023-01-26T04:08:24.338Z,0.24
2023-01-26T04:09:31.615Z,0.18
2023-01-26T04:10:33.024Z,0.20
2023-01-26T04:11:37.124Z,0.21
2023-01-26T04:12:39.221Z,0.22
2023-01-26T04:13:58.807Z,0.22
2023-01-26T04:15:04.981Z,0.30
2023-01-26T04:16:07.519Z,0.24
2023-01-26T04:17:08.872Z,0.24
2023-01-26T04:18:11.336Z,0.29
2023-01-26T04:19:12.615Z,0.26
2023-01-26T04:20:14.609Z,0.23
2023-01-26T04:21:17.504Z,0.12
2023-01-26T04:22:19.022Z,0.13
2023-01-26T04:23:22.527Z,0.11
2023-01-26T04:24:25.590Z,0.17
2023-01-26T04:25:31.553Z,0.23
2023-01-26T04:26:32.884Z,0.25
2023-01-26T04:27:34.185Z,0.19
2023-01-26T04:28:36.543Z,0.31
2023-01-26T04:29:37.984Z,0.32
2023-01-26T04:30:39.433Z,0.28
2023-01-26T04:31:41.391Z,0.23
2023-01-26T04:32:43.606Z,0.31
2023-01-26T04:33:44.950Z,0.26
2023-01-26T04:34:46.289Z,0.25
2023-01-26T04:35:54.648Z,0.25
2023-01-26T04:36:55.883Z,0.19
2023-01-26T04:38:00.205Z,0.21
2023-01-26T04:39:01.630Z,0.14
2023-01-26T04:40:03.949Z,0.13
2023-01-26T04:41:06.587Z,0.11
2023-01-26T04:42:14.616Z,0.11
2023-01-26T04:43:15.844Z,0.09
2023-01-26T04:44:17.223Z,0.10
2023-01-26T04:45:18.691Z,0.07
2023-01-26T04:46:20.848Z,0.10
2023-01-26T04:47:22.151Z,0.07
2023-01-26T04:48:23.466Z,0.17
2023-01-26T04:49:25.224Z,0.18
2023-01-26T04:50:26.877Z,0.15
2023-01-26T04:51:28.404Z,0.19
2023-01-26T04:52:30.225Z,0.20
2023-01-26T04:53:32.155Z,0.20
2023-01-26T04:54:33.431Z,0.18
2023-01-26T04:55:34.700Z,0.16
2023-01-26T04:56:36.008Z,0.17
2023-01-26T04:57:37.914Z,0.18
2023-01-26T04:58:39.840Z,0.18
2023-01-26T04:59:41.188Z,0.13
2023-01-26T05:00:42.414Z,0.16
2023-01-26T05:01:44.100Z,0.18
2023-01-26T05:02:45.420Z,0.21
2023-01-26T05:03:46.745Z,0.18
2023-01-26T05:04:47.992Z,0.27
2023-01-26T05:05:50.710Z,0.24
2023-01-26T05:06:53.306Z,0.16
2023-01-26T05:07:56.850Z,0.17
2023-01-26T05:08:59.540Z,0.09
2023-01-26T05:10:01.767Z,0.12
2023-01-26T05:11:15.981Z,0.11
2023-01-26T05:12:29.271Z,0.17
2023-01-26T05:13:49.447Z,0.20
2023-01-26T05:15:09.966Z,0.12
2023-01-26T05:16:41.332Z,0.05
2023-01-26T05:18:04.387Z,0.06
2023-01-26T05:19:24.150Z,0.05
2023-01-26T05:20:33.123Z,0.10
2023-01-26T05:21:48.446Z,0.06
2023-01-26T05:22:49.725Z,0.02
2023-01-26T05:24:17.129Z,0.05
2023-01-26T05:25:38.848Z,0.07
2023-01-26T05:26:44.434Z,0.07
2023-01-26T05:27:51.069Z,0.04
2023-01-26T05:28:54.634Z,0.05
2023-01-26T05:29:55.959Z,0.04
2023-01-26T05:30:57.238Z,0.06
2023-01-26T05:31:58.569Z,0.02
2023-01-26T05:33:00.789Z,0.02
2023-01-26T05:34:02.128Z,0.02
2023-01-26T05:35:03.990Z,0.05
2023-01-26T05:36:06.925Z,0.05
2023-01-26T05:37:08.466Z,0.07
2023-01-26T05:38:10.632Z,0.04
2023-01-26T05:39:12.611Z,0.13
2023-01-26T05:40:14.074Z,0.03
2023-01-26T05:41:15.483Z,0.03
2023-01-26T05:42:56.526Z,0.01
2023-01-26T05:44:30.195Z,0.05
2023-01-26T05:45:40.084Z,0.06
2023-01-26T05:46:41.357Z,0.02
2023-01-26T05:47:43.311Z,0.05
2023-01-26T05:48:44.627Z,0.02
2023-01-26T05:49:46.055Z,0.02
2023-01-26T05:50:52.178Z,0.04
2023-01-26T05:51:56.326Z,0.00
2023-01-26T05:52:58.523Z,-0.02
2023-01-26T05:53:59.823Z,-0.03
2023-01-26T05:55:01.264Z,-0.04
2023-01-26T05:56:02.547Z,-0.01
2023-01-26T05:57:06.110Z,0.03
2023-01-26T05:58:11.181Z,-0.01
2023-01-26T05:59:13.399Z,-0.03
2023-01-26T06:00:14.832Z,-0.09
2023-01-26T06:01:19.627Z,-0.07
2023-01-26T06:02:27.195Z,-0.01
2023-01-26T06:03:28.817Z,-0.02
2023-01-26T06:04:30.270Z,0.02
2023-01-26T06:05:33.760Z,0.01
2023-01-26T06:06:40.466Z,-0.01
2023-01-26T06:07:59.853Z,-0.07
2023-01-26T06:09:11.239Z,-0.09
2023-01-26T06:10:31.181Z,-0.13
2023-01-26T06:11:57.257Z,-0.11
2023-01-26T06:13:24.821Z,-0.12
2023-01-26T06:14:39.063Z,-0.16
2023-01-26T06:15:41.135Z,-0.14
2023-01-26T06:16:43.368Z,0.01
2023-01-26T06:17:46.084Z,-0.02
2023-01-26T06:18:49.360Z,-0.02
2023-01-26T06:19:50.679Z,-0.04
2023-01-26T06:20:52.098Z,-0.08
2023-01-26T06:21:53.435Z,-0.14
2023-01-26T06:22:58.978Z,-0.16
2023-01-26T06:24:01.780Z,-0.17
2023-01-26T06:25:08.355Z,-0.19
2023-01-26T06:26:10.927Z,-0.18
2023-01-26T06:27:13.611Z,-0.17
2023-01-26T06:28:14.959Z,-0.12
2023-01-26T06:29:16.335Z,-0.13
2023-01-26T06:30:17.887Z,-0.12
2023-01-26T06:31:19.873Z,-0.07
2023-01-26T06:32:21.599Z,-0.09
2023-01-26T06:33:26.825Z,-0.03
2023-01-26T06:34:28.909Z,-0.07
2023-01-26T06:35:30.259Z,-0.07
2023-01-26T06:36:35.011Z,-0.09
2023-01-26T06:37:38.122Z,-0.09
2023-01-26T06:38:39.828Z,-0.07
2023-01-26T06:39:41.891Z,-0.08
2023-01-26T06:40:43.421Z,-0.08
2023-01-26T06:41:44.732Z,-0.07
2023-01-26T06:42:47.105Z,-0.06
2023-01-26T06:43:48.938Z,-0.01
2023-01-26T06:44:50.218Z,-0.02
2023-01-26T06:45:52.277Z,-0.03
2023-01-26T06:46:54.991Z,-0.02
2023-01-26T06:47:56.263Z,-0.01
2023-01-26T06:49:01.312Z,0.02
2023-01-26T06:50:04.109Z,0.01
2023-01-26T06:51:15.054Z,0.05
2023-01-26T06:52:27.171Z,0.05
2023-01-26T06:53:37.834Z,0.03
2023-01-26T06:54:59.389Z,-0.02
2023-01-26T06:56:19.283Z,-0.01
2023-01-26T06:57:33.840Z,-0.06
2023-01-26T06:58:45.622Z,-0.02
2023-01-26T07:00:13.278Z,0.00
2023-01-26T07:01:32.018Z,0.06
2023-01-26T07:02:33.443Z,0.07
2023-01-26T07:03:34.712Z,0.10
2023-01-26T07:04:35.997Z,0.12
2023-01-26T07:05:37.349Z,0.08
2023-01-26T07:06:38.619Z,-0.01
2023-01-26T07:07:39.861Z,-0.06
2023-01-26T07:08:41.084Z,-0.04
2023-01-26T07:09:42.365Z,-0.05
2023-01-26T07:10:44.910Z,-0.05
2023-01-26T07:11:46.175Z,-0.10
2023-01-26T07:12:47.424Z,-0.03
2023-01-26T07:13:48.720Z,-0.04
2023-01-26T07:14:50.022Z,-0.06
2023-01-26T07:15:51.216Z,-0.01
2023-01-26T07:16:52.481Z,-0.07
2023-01-26T07:17:53.834Z,-0.08
2023-01-26T07:18:55.152Z,-0.09
2023-01-26T07:19:56.417Z,-0.09
2023-01-26T07:21:00.928Z,-0.15
2023-01-26T07:22:02.162Z,-0.18
2023-01-26T07:23:03.486Z,-0.17
2023-01-26T07:24:05.028Z,-0.17
2023-01-26T07:25:06.503Z,-0.14
2023-01-26T07:26:08.071Z,-0.16
2023-01-26T07:27:09.467Z,-0.12
2023-01-26T07:28:10.770Z,-0.15
2023-01-26T07:29:12.052Z,-0.16
2023-01-26T07:30:13.578Z,-0.10
2023-01-26T07:31:14.971Z,-0.11
2023-01-26T07:32:16.638Z,-0.14
2023-01-26T07:33:18.410Z,-0.20
2023-01-26T07:34:19.674Z,-0.18
2023-01-26T07:35:21.106Z,-0.22
2023-01-26T07:36:22.373Z,-0.22
2023-01-26T07:37:27.001Z,-0.22
2023-01-26T07:38:28.374Z,-0.16
2023-01-26T07:39:29.652Z,-0.16
2023-01-26T07:40:30.944Z,-0.21
2023-01-26T07:41:32.224Z,-0.23
2023-01-26T07:42:33.573Z,-0.20
2023-01-26T07:43:53.074Z,-0.17
2023-01-26T07:44:54.587Z,-0.16
2023-01-26T07:45:55.846Z,-0.17
2023-01-26T07:46:57.443Z,-0.21
2023-01-26T07:47:58.675Z,-0.15
2023-01-26T07:48:59.932Z,-0.13
2023-01-26T07:50:01.327Z,-0.12
2023-01-26T07:51:03.642Z,-0.11
2023-01-26T07:52:12.589Z,-0.10
2023-01-26T07:53:16.500Z,-0.08
2023-01-26T07:54:17.780Z,-0.09
2023-01-26T07:55:19.789Z,-0.14
2023-01-26T07:56:21.012Z,-0.06
2023-01-26T07:57:22.322Z,-0.04
2023-01-26T07:58:23.617Z,-0.01
2023-01-26T07:59:25.183Z,0.02
2023-01-26T08:00:26.734Z,0.05
2023-01-26T08:01:28.129Z,0.03
2023-01-26T08:02:29.513Z,-0.06
2023-01-26T08:03:31.096Z,-0.07
2023-01-26T08:04:32.398Z,-0.07
2023-01-26T08:05:33.669Z,-0.10
2023-01-26T08:06:35.002Z,-0.10
2023-01-26T08:07:36.481Z,-0.12
2023-01-26T08:08:37.716Z,-0.14
2023-01-26T08:09:38.952Z,-0.12
2023-01-26T08:10:40.187Z,-0.13
2023-01-26T08:11:41.471Z,-0.16
2023-01-26T08:12:42.713Z,-0.19
2023-01-26T08:13:43.971Z,-0.14
2023-01-26T08:14:46.977Z,-0.08
2023-01-26T08:15:48.542Z,-0.06
2023-01-26T08:16:49.911Z,-0.02
2023-01-26T08:17:54.485Z,0.01
2023-01-26T08:18:55.829Z,-0.05
2023-01-26T08:19:57.119Z,-0.03
2023-01-26T08:20:59.449Z,0.00
2023-01-26T08:22:00.753Z,0.01
2023-01-26T08:23:02.040Z,0.03
2023-01-26T08:24:03.452Z,0.02
2023-01-26T08:25:04.924Z,0.01
2023-01-26T08:26:08.398Z,-0.02
2023-01-26T08:27:09.706Z,0.03
2023-01-26T08:28:10.976Z,0.05
2023-01-26T08:29:12.306Z,0.06
2023-01-26T08:30:14.123Z,0.07
2023-01-26T08:31:17.542Z,0.08
2023-01-26T08:32:19.046Z,0.12
2023-01-26T08:33:22.622Z,0.14
2023-01-26T08:34:23.916Z,0.13
2023-01-26T08:35:25.259Z,0.12
2023-01-26T08:36:26.593Z,0.09
2023-01-26T08:37:27.852Z,0.12
2023-01-26T08:38:29.897Z,0.11
2023-01-26T08:39:31.141Z,0.16
2023-01-26T08:40:32.538Z,0.18
2023-01-26T08:41:33.795Z,0.19
2023-01-26T08:42:35.085Z,0.20
2023-01-26T08:43:36.443Z,0.26
2023-01-26T08:44:37.895Z,0.25
2023-01-26T08:45:39.235Z,0.23
2023-01-26T08:46:40.504Z,0.19
2023-01-26T08:47:41.926Z,0.20
2023-01-26T08:48:43.183Z,0.31
2023-01-26T08:49:44.448Z,0.22
2023-01-26T08:50:45.844Z,0.24
2023-01-26T08:51:47.298Z,0.20
2023-01-26T08:52:48.684Z,0.26
2023-01-26T08:53:50.265Z,0.26
2023-01-26T08:54:51.480Z,0.22
2023-01-26T08:55:52.749Z,0.21
2023-01-26T08:56:53.964Z,0.21
2023-01-26T08:57:55.293Z,0.20
2023-01-26T08:58:56.601Z,0.21
2023-01-26T08:59:57.994Z,0.18
2023-01-26T09:00:59.675Z,0.14
2023-01-26T09:02:01.066Z,0.15
2023-01-26T09:03:04.124Z,0.21
2023-01-26T09:04:05.506Z,0.19
2023-01-26T09:05:07.124Z,0.16
2023-01-26T09:06:09.758Z,0.14
2023-01-26T09:07:13.247Z,0.18
2023-01-26T09:08:14.744Z,0.13
2023-01-26T09:09:16.222Z,0.16
2023-01-26T09:10:17.463Z,0.18
2023-01-26T09:11:21.036Z,0.21
2023-01-26T09:12:22.312Z,0.23
2023-01-26T09:13:24.001Z,0.22
2023-01-26T09:14:25.268Z,0.22
2023-01-26T09:15:27.013Z,0.20
2023-01-26T09:16:28.285Z,0.16
2023-01-26T09:17:29.501Z,0.17
2023-01-26T09:18:30.889Z,0.17
2023-01-26T09:19:32.425Z,0.14
2023-01-26T09:20:33.758Z,0.21
2023-01-26T09:21:35.038Z,0.22
2023-01-26T09:22:36.303Z,0.23
2023-01-26T09:23:37.607Z,0.25
2023-01-26T09:24:38.959Z,0.25
2023-01-26T09:25:40.215Z,0.31
2023-01-26T09:26:41.461Z,0.36
2023-01-26T09:27:42.847Z,0.35
2023-01-26T09:28:44.314Z,0.38
2023-01-26T09:29:45.659Z,0.34
2023-01-26T09:30:47.056Z,0.29
2023-01-26T09:31:48.456Z,0.30
2023-01-26T09:32:49.884Z,0.35
2023-01-26T09:33:51.625Z,0.33
2023-01-26T09:34:53.016Z,0.30
2023-01-26T09:35:54.264Z,0.38
2023-01-26T09:36:55.549Z,0.38
2023-01-26T09:37:56.773Z,0.33
2023-01-26T09:38:58.048Z,0.29
2023-01-26T09:39:59.331Z,0.25
2023-01-26T09:41:12.711Z,0.31
2023-01-26T09:42:32.488Z,0.24
2023-01-26T09:43:39.601Z,0.23
2023-01-26T09:44:45.817Z,0.18
2023-01-26T09:45:54.457Z,0.14
2023-01-26T09:46:55.764Z,0.13
2023-01-26T09:48:09.197Z,0.13
2023-01-26T09:49:17.170Z,0.14
2023-01-26T09:50:24.981Z,0.14
2023-01-26T09:51:33.211Z,0.17
2023-01-26T09:52:55.296Z,0.16
2023-01-26T09:53:59.232Z,0.12
2023-01-26T09:55:02.270Z,0.14
2023-01-26T09:56:03.998Z,0.10
2023-01-26T09:57:37.556Z,0.14
2023-01-26T09:58:39.956Z,0.14
2023-01-26T09:59:44.012Z,0.20
2023-01-26T10:00:50.427Z,0.28
2023-01-26T10:01:57.283Z,0.23
2023-01-26T10:03:17.084Z,0.21
2023-01-26T10:04:26.066Z,0.30
2023-01-26T10:05:42.361Z,0.25
2023-01-26T10:06:44.024Z,0.25
2023-01-26T10:07:55.741Z,0.32
2023-01-26T10:08:59.019Z,0.30
2023-01-26T10:10:00.504Z,0.22
2023-01-26T10:11:06.358Z,0.22
2023-01-26T10:12:14.901Z,0.27
2023-01-26T10:13:17.244Z,0.23
2023-01-26T10:14:18.481Z,0.18
2023-01-26T10:15:29.448Z,0.21
2023-01-26T10:16:33.413Z,0.16
2023-01-26T10:17:36.605Z,0.17
2023-01-26T10:18:48.627Z,0.22
2023-01-26T10:19:52.544Z,0.14
2023-01-26T10:20:55.123Z,0.18
2023-01-26T10:21:59.186Z,0.18
2023-01-26T10:23:03.092Z,0.13
2023-01-26T10:24:04.945Z,0.07
2023-01-26T10:25:41.603Z,0.04
2023-01-26T10:26:43.235Z,0.09
2023-01-26T10:27:45.579Z,0.06
2023-01-26T10:28:48.448Z,0.18
2023-01-26T10:29:49.899Z,0.23
2023-01-26T10:30:51.842Z,0.23
2023-01-26T10:31:53.372Z,0.35
2023-01-26T10:32:55.799Z,0.32
2023-01-26T10:34:00.004Z,0.29
2023-01-26T10:35:01.255Z,0.26
2023-01-26T10:36:04.054Z,0.29
2023-01-26T10:37:26.377Z,0.30
2023-01-26T10:38:27.706Z,0.32
2023-01-26T10:39:28.995Z,0.29
2023-01-26T10:40:41.891Z,0.29
2023-01-26T10:41:59.832Z,0.34
2023-01-26T10:43:01.045Z,0.30
2023-01-26T10:44:21.051Z,0.27
2023-01-26T10:45:27.896Z,0.27
2023-01-26T10:46:32.267Z,0.30
2023-01-26T10:47:33.607Z,0.28
2023-01-26T10:48:34.910Z,0.28
2023-01-26T10:49:36.201Z,0.23
2023-01-26T10:50:37.699Z,0.24
2023-01-26T10:51:40.420Z,0.27
2023-01-26T10:52:56.617Z,0.37
2023-01-26T10:54:12.969Z,0.32
2023-01-26T10:55:23.035Z,0.31
2023-01-26T10:56:24.285Z,0.34
2023-01-26T10:57:29.514Z,0.35
2023-01-26T10:58:57.256Z,0.32
2023-01-26T11:00:00.659Z,0.31
2023-01-26T11:01:01.937Z,0.28
2023-01-26T11:02:19.272Z,0.34
2023-01-26T11:03:20.565Z,0.28
2023-01-26T11:04:22.568Z,0.35
2023-01-26T11:05:25.055Z,0.39
2023-01-26T11:06:30.037Z,0.43
2023-01-26T11:07:35.256Z,0.46
2023-01-26T11:08:40.787Z,0.44
2023-01-26T11:09:42.109Z,0.39
2023-01-26T11:10:51.464Z,0.43
2023-01-26T11:11:57.132Z,0.44
2023-01-26T11:13:07.645Z,0.43
2023-01-26T11:14:18.794Z,0.43
2023-01-26T11:15:20.045Z,0.49
2023-01-26T11:16:23.689Z,0.47
2023-01-26T11:17:27.013Z,0.42
2023-01-26T11:18:31.144Z,0.40
2023-01-26T11:19:35.298Z,0.33
2023-01-26T11:20:36.567Z,0.32
2023-01-26T11:21:37.837Z,0.33
2023-01-26T11:22:48.791Z,0.30
2023-01-26T11:24:05.120Z,0.36
2023-01-26T11:25:06.377Z,0.29
2023-01-26T11:26:07.681Z,0.35
2023-01-26T11:27:22.499Z,0.35
2023-01-26T11:28:41.367Z,0.28
2023-01-26T11:29:51.381Z,0.28
2023-01-26T11:31:04.009Z,0.28
2023-01-26T11:32:30.283Z,0.33
2023-01-26T11:33:39.332Z,0.33
2023-01-26T11:34:50.772Z,0.31
2023-01-26T11:35:55.558Z,0.37
2023-01-26T11:37:29.386Z,0.38
2023-01-26T11:38:30.630Z,0.39
2023-01-26T11:39:47.525Z,0.40
2023-01-26T11:40:57.281Z,0.42
2023-01-26T11:42:15.556Z,0.37
2023-01-26T11:43:30.496Z,0.27
2023-01-26T11:44:37.863Z,0.22
2023-01-26T11:45:45.261Z,0.18
2023-01-26T11:47:01.849Z,0.26
2023-01-26T11:48:03.249Z,0.30
2023-01-26T11:49:16.462Z,0.32
2023-01-26T11:50:23.212Z,0.28
2023-01-26T11:51:24.417Z,0.27
2023-01-26T11:52:33.276Z,0.26
2023-01-26T11:53:57.824Z,0.26
2023-01-26T11:54:59.154Z,0.23
2023-01-26T11:56:00.402Z,0.24
2023-01-26T11:57:15.650Z,0.23
2023-01-26T11:58:39.312Z,0.25
2023-01-26T11:59:46.642Z,0.24
2023-01-26T12:00:56.274Z,0.17
2023-01-26T12:02:03.685Z,0.28
2023-01-26T12:03:06.062Z,0.25
2023-01-26T12:04:11.759Z,0.18
2023-01-26T12:05:24.382Z,0.21
2023-01-26T12:06:39.896Z,0.24
2023-01-26T12:07:59.701Z,0.26
2023-01-26T12:09:03.648Z,0.22
2023-01-26T12:10:07.501Z,0.13
2023-01-26T12:11:10.809Z,0.17
2023-01-26T12:12:14.815Z,0.13
2023-01-26T12:13:34.539Z,0.09
2023-01-26T12:14:46.418Z,0.07
2023-01-26T12:15:51.724Z,0.05
2023-01-26T12:17:15.474Z,0.05
2023-01-26T12:18:48.964Z,0.05
2023-01-26T12:19:57.701Z,0.00
2023-01-26T12:21:08.544Z,0.00
2023-01-26T12:22:15.512Z,0.04
2023-01-26T12:23:16.768Z,0.06
2023-01-26T12:24:54.121Z,0.09
2023-01-26T12:25:52.802Z,0.17
2023-01-26T12:26:54.380Z,0.23
2023-01-26T12:28:14.007Z,0.18
2023-01-26T12:29:24.824Z,0.15
2023-01-26T12:30:31.952Z,0.18
2023-01-26T12:31:49.061Z,0.14
2023-01-26T12:32:50.873Z,0.14
2023-01-26T12:33:53.486Z,0.27
2023-01-26T12:34:54.753Z,0.24
2023-01-26T12:36:02.090Z,0.19
2023-01-26T12:37:06.345Z,0.12
2023-01-26T12:38:17.916Z,0.12
2023-01-26T12:39:33.405Z,0.09
2023-01-26T12:40:43.214Z,0.09
2023-01-26T12:42:01.266Z,0.09
2023-01-26T12:43:06.941Z,0.14
2023-01-26T12:44:16.603Z,0.12
2023-01-26T12:45:20.507Z,0.17
2023-01-26T12:46:22.200Z,0.13
2023-01-26T12:47:23.493Z,0.11
2023-01-26T12:48:31.073Z,0.07
2023-01-26T12:49:34.954Z,0.08
2023-01-26T12:50:40.357Z,0.04
2023-01-26T12:51:44.528Z,0.03
2023-01-26T12:53:01.712Z,0.05
2023-01-26T12:54:06.165Z,0.06
2023-01-26T12:55:07.541Z,0.06
2023-01-26T12:56:11.659Z,0.07
2023-01-26T12:57:16.198Z,0.12
2023-01-26T12:58:21.189Z,0.16
2023-01-26T12:59:48.126Z,0.21
2023-01-26T13:00:52.089Z,0.18
2023-01-26T13:01:54.327Z,0.18
2023-01-26T13:02:59.255Z,0.18
2023-01-26T13:04:07.867Z,0.17
2023-01-26T13:05:23.019Z,0.14
2023-01-26T13:06:25.627Z,0.18
2023-01-26T13:07:37.460Z,0.13
2023-01-26T13:08:40.551Z,0.18
2023-01-26T13:10:01.779Z,0.17
2023-01-26T13:11:04.660Z,0.13
2023-01-26T13:12:25.939Z,0.17
2023-01-26T13:13:29.335Z,0.12
2023-01-26T13:14:42.334Z,0.12
2023-01-26T13:15:43.777Z,0.18
2023-01-26T13:16:45.148Z,0.13
2023-01-26T13:17:55.582Z,0.14
2023-01-26T13:18:57.566Z,0.09
2023-01-26T13:19:58.944Z,0.09
2023-01-26T13:21:00.445Z,0.13
2023-01-26T13:22:02.150Z,0.09
2023-01-26T13:23:19.281Z,0.10
2023-01-26T13:24:20.711Z,0.07
2023-01-26T13:25:32.011Z,0.05
2023-01-26T13:26:33.300Z,0.11
2023-01-26T13:27:37.413Z,0.14
2023-01-26T13:28:38.734Z,0.17
2023-01-26T13:29:52.524Z,0.18
2023-01-26T13:32:21.718Z,0.07
2023-01-26T13:33:23.794Z,0.07
2023-01-26T13:34:31.384Z,0.05
2023-01-26T13:35:33.419Z,0.05
2023-01-26T13:36:36.545Z,0.04
2023-01-26T13:37:56.493Z,0.03
2023-01-26T13:39:18.019Z,0.05
2023-01-26T13:40:19.272Z,0.05
2023-01-26T13:41:20.900Z,0.08
2023-01-26T13:42:28.619Z,0.13
2023-01-26T13:43:37.029Z,0.19
2023-01-26T13:44:42.694Z,0.22
2023-01-26T13:45:51.114Z,0.23
2023-01-26T13:46:58.876Z,0.22
2023-01-26T13:48:01.908Z,0.15
2023-01-26T13:49:03.211Z,0.18
2023-01-26T13:50:28.975Z,0.14
2023-01-26T13:51:31.321Z,0.12
2023-01-26T13:52:32.584Z,0.09
2023-01-26T13:53:40.713Z,0.12
2023-01-26T13:54:43.166Z,0.21
2023-01-26T13:55:58.290Z,0.20
2023-01-26T13:57:03.944Z,0.14
2023-01-26T13:58:15.913Z,0.16
2023-01-26T13:59:18.877Z,0.19
2023-01-26T14:00:20.152Z,0.21
2023-01-26T14:01:21.430Z,0.17
2023-01-26T14:02:29.986Z,0.11
2023-01-26T14:03:31.531Z,0.10
2023-01-26T14:04:32.773Z,0.17
2023-01-26T14:05:35.045Z,0.17
2023-01-26T14:06:37.023Z,0.17
2023-01-26T14:07:42.321Z,0.16
2023-01-26T14:08:51.690Z,0.15
2023-01-26T14:09:53.712Z,0.18
2023-01-26T14:10:55.462Z,0.17
2023-01-26T14:12:01.059Z,0.14
2023-01-26T14:13:02.985Z,0.24
2023-01-26T14:14:04.307Z,0.18
2023-01-26T14:15:06.988Z,0.17
2023-01-26T14:16:19.858Z,0.17
2023-01-26T14:17:34.153Z,0.17